CNZ6 weather

Georgetown (Georgetown & District Hospital) Heliport
Georgetown, Ontario, Canada

Public forecast

Using degrees Celsius for public forecast. Weather courtesy of forecast.io.

METAR (pilot weather report)

Closest report is Lester B. Pearson International Airport, 13.3 nm (24.7 km) E. Retrieved 2019/05/26 04:00 UTC (24 minutes ago):

CYYZ 260400Z 21007KT 15SM SKC 19/18 A2983 RMK SLP105 DENSITY ALT 1300FT

TAF (pilot weather forecast)

Closest forecast is Lester B. Pearson International Airport, 13.3 nm (24.7 km) E. Retrieved 2019/05/26 03:39 UTC (45 minutes ago):

TAF CYYZ 260238Z 2603/2706 18008KT P6SM FEW003 TEMPO 2603/2604 1SM BR BKN003 PROB30 2603/2604 1/2SM FG VV002 FM260400 23006KT P6SM FEW003 PROB30 2604/2608 2SM BR BKN003 FM260800 30010KT P6SM FEW015 FM261200 30010KT P6SM SCT060 FM261500 30010G20KT P6SM FEW020 FM261800 30010G20KT P6SM FEW030 BECMG 2619/2621 30012KT FM270200 35008KT P6SM SKC RMK NXT FCST BY 260600Z